createdAt,value
2023-02-15T00:00:12.448Z,98745.56
2023-02-15T00:02:40.714Z,98744.69
2023-02-15T00:05:09.568Z,98744.69
2023-02-15T00:07:37.869Z,98741.06
2023-02-15T00:10:07.445Z,98734.84
2023-02-15T00:12:35.854Z,98726.78
2023-02-15T00:15:05.952Z,98725.97
2023-02-15T00:17:34.126Z,98732.19
2023-02-15T00:20:02.349Z,98728.69
2023-02-15T00:22:30.705Z,98724.28
2023-02-15T00:24:58.973Z,98729.66
2023-02-15T00:27:27.199Z,98729.56
2023-02-15T00:29:55.465Z,98727.84
2023-02-15T00:32:25.127Z,98726.97
2023-02-15T00:34:53.680Z,98724.28
2023-02-15T00:37:21.924Z,98726.97
2023-02-15T00:39:50.175Z,98729.66
2023-02-15T00:42:19.203Z,98729.72
2023-02-15T00:44:47.409Z,98733.31
2023-02-15T00:47:15.449Z,98728.91
2023-02-15T00:49:45.004Z,98726.22
2023-02-15T00:52:13.625Z,98728.09
2023-02-15T00:54:41.821Z,98730.78
2023-02-15T00:57:09.968Z,98728.09
2023-02-15T00:59:38.058Z,98720.06
2023-02-15T01:02:06.366Z,98724.53
2023-02-15T01:04:34.555Z,98730.78
2023-02-15T01:07:04.745Z,98721.91
2023-02-15T01:09:34.993Z,98718.34
2023-02-15T01:12:05.086Z,98719.25
2023-02-15T01:14:33.408Z,98722.84
2023-02-15T01:17:01.564Z,98717.53
2023-02-15T01:19:29.904Z,98713.09
2023-02-15T01:21:58.073Z,98710.41
2023-02-15T01:24:27.721Z,98705.09
2023-02-15T01:26:55.972Z,98703.38
2023-02-15T01:29:24.204Z,98708.75
2023-02-15T01:31:52.708Z,98701.59
2023-02-15T01:34:20.958Z,98700.75
2023-02-15T01:36:49.394Z,98692.72
2023-02-15T01:39:17.717Z,98693.63
2023-02-15T01:41:47.424Z,98688.25
2023-02-15T01:44:51.229Z,98682.97
2023-02-15T01:47:24.550Z,98682.97
2023-02-15T01:49:54.609Z,98681.28
2023-02-15T01:52:22.829Z,98676.84
2023-02-15T01:54:51.788Z,98677.72
2023-02-15T01:57:24.173Z,98675.03
2023-02-15T01:59:54.932Z,98667.03
2023-02-15T02:02:25.355Z,98657.22
2023-02-15T02:04:57.871Z,98659.91
2023-02-15T02:07:28.785Z,98659.03
2023-02-15T02:09:56.999Z,98650.94
2023-02-15T02:12:27.015Z,98647.34
2023-02-15T02:14:55.176Z,98649.06
2023-02-15T02:17:24.870Z,98649.94
2023-02-15T02:20:24.428Z,98643.63
2023-02-15T02:23:34.279Z,98639.28
2023-02-15T02:26:29.945Z,98641.03
2023-02-15T02:29:29.617Z,98641.97
2023-02-15T02:32:11.607Z,98640.13
2023-02-15T02:34:42.659Z,98633.94
2023-02-15T02:37:13.500Z,98638.34
2023-02-15T02:39:45.480Z,98628.56
2023-02-15T02:42:16.383Z,98631.25
2023-02-15T02:44:45.596Z,98630.28
2023-02-15T02:47:15.804Z,98628.56
2023-02-15T02:49:45.671Z,98628.59
2023-02-15T02:52:42.619Z,98628.63
2023-02-15T02:55:13.751Z,98626.84
2023-02-15T02:57:45.414Z,98625.03
2023-02-15T03:00:16.789Z,98621.53
2023-02-15T03:02:45.817Z,98615.22
2023-02-15T03:05:16.849Z,98616.09
2023-02-15T03:07:45.286Z,98623.28
2023-02-15T03:10:13.561Z,98619.69
2023-02-15T03:12:41.773Z,98614.34
2023-02-15T03:15:11.808Z,98616.16
2023-02-15T03:17:41.620Z,98616.16
2023-02-15T03:20:11.584Z,98617.03
2023-02-15T03:22:42.007Z,98613.50
2023-02-15T03:25:14.530Z,98619.78
2023-02-15T03:27:46.039Z,98618.91
2023-02-15T03:30:14.711Z,98617.09
2023-02-15T03:32:42.920Z,98620.72
2023-02-15T03:35:11.252Z,98626.09
2023-02-15T03:37:42.837Z,98618.91
2023-02-15T03:40:26.975Z,98615.38
2023-02-15T03:42:58.075Z,98617.16
2023-02-15T03:45:28.169Z,98614.47
2023-02-15T03:47:57.005Z,98618.03
2023-02-15T03:50:44.135Z,98618.03
2023-02-15T03:53:15.661Z,98618.97
2023-02-15T03:55:43.869Z,98620.78
2023-02-15T03:58:29.326Z,98623.44
2023-02-15T04:01:17.235Z,98617.25
2023-02-15T04:03:46.355Z,98619.91
2023-02-15T04:06:14.502Z,98619.03
2023-02-15T04:09:01.628Z,98614.59
2023-02-15T04:11:29.749Z,98610.09
2023-02-15T04:13:59.082Z,98619.97
2023-02-15T04:16:26.381Z,98617.28
2023-02-15T04:19:11.925Z,98611.97
2023-02-15T04:21:57.480Z,98616.44
2023-02-15T04:24:44.394Z,98608.38
2023-02-15T04:27:12.581Z,98610.19
2023-02-15T04:29:40.797Z,98609.31
2023-02-15T04:32:09.032Z,98606.63
2023-02-15T04:34:37.310Z,98611.97
2023-02-15T04:37:05.498Z,98604.88
2023-02-15T04:39:35.186Z,98600.44
2023-02-15T04:42:03.359Z,98606.69
2023-02-15T04:44:31.561Z,98608.41
2023-02-15T04:46:59.987Z,98599.53
2023-02-15T04:49:28.267Z,98600.44
2023-02-15T04:51:56.485Z,98605.00
2023-02-15T04:54:26.276Z,98601.41
2023-02-15T04:56:55.943Z,98598.81
2023-02-15T04:59:24.060Z,98598.91
2023-02-15T05:01:52.319Z,98599.81
2023-02-15T05:04:20.520Z,98592.72
2023-02-15T05:06:48.836Z,98593.53
2023-02-15T05:09:17.254Z,98588.16
2023-02-15T05:11:45.427Z,98587.28
2023-02-15T05:14:15.295Z,98584.59
2023-02-15T05:16:43.824Z,98596.28
2023-02-15T05:19:12.111Z,98592.66
2023-02-15T05:21:40.284Z,98589.03
2023-02-15T05:24:29.593Z,98590.84
2023-02-15T05:27:15.493Z,98591.72
2023-02-15T05:29:45.124Z,98589.03
2023-02-15T05:32:15.140Z,98593.53
2023-02-15T05:34:43.437Z,98589.97
2023-02-15T05:37:11.684Z,98597.94
2023-02-15T05:39:39.809Z,98593.47
2023-02-15T05:42:07.937Z,98599.63
2023-02-15T05:44:36.169Z,98590.78
2023-02-15T05:47:08.257Z,98601.50
2023-02-15T05:49:37.143Z,98600.59
2023-02-15T05:52:05.359Z,98591.66
2023-02-15T05:54:33.634Z,98602.38
2023-02-15T05:57:01.824Z,98600.59
2023-02-15T05:59:29.974Z,98599.63
2023-02-15T06:01:58.170Z,98599.63
2023-02-15T06:04:27.955Z,98595.16
2023-02-15T06:06:56.207Z,98601.41
2023-02-15T06:09:24.387Z,98604.06
2023-02-15T06:11:52.672Z,98604.06
2023-02-15T06:14:20.902Z,98605.81
2023-02-15T06:16:49.135Z,98604.00
2023-02-15T06:19:17.776Z,98604.88
2023-02-15T06:21:47.374Z,98608.50
2023-02-15T06:24:15.632Z,98605.72
2023-02-15T06:26:43.761Z,98605.72
2023-02-15T06:29:11.972Z,98607.56
2023-02-15T06:31:40.307Z,98610.25
2023-02-15T06:34:08.589Z,98612.06
2023-02-15T06:36:37.075Z,98610.25
2023-02-15T06:39:07.251Z,98613.84
2023-02-15T06:41:35.476Z,98615.63
2023-02-15T06:44:03.696Z,98621.00
2023-02-15T06:46:31.814Z,98620.03
2023-02-15T06:49:00.099Z,98624.41
2023-02-15T06:51:28.227Z,98620.78
2023-02-15T06:53:56.620Z,98621.56
2023-02-15T06:56:26.202Z,98617.97
2023-02-15T06:58:54.560Z,98625.94
2023-02-15T07:01:22.831Z,98625.91
2023-02-15T07:03:51.049Z,98627.72
2023-02-15T07:06:19.322Z,98625.03
2023-02-15T07:08:47.519Z,98624.13
2023-02-15T07:11:32.763Z,98625.91
2023-02-15T07:14:02.783Z,98620.53
2023-02-15T07:16:31.187Z,98618.66
2023-02-15T07:18:59.452Z,98617.88
2023-02-15T07:21:27.620Z,98615.19
2023-02-15T07:23:58.348Z,98619.66
2023-02-15T07:26:26.469Z,98617.97
2023-02-15T07:28:54.640Z,98616.22
2023-02-15T07:31:24.279Z,98615.38
2023-02-15T07:33:52.461Z,98615.38
2023-02-15T07:36:20.760Z,98615.38
2023-02-15T07:38:49.224Z,98612.69
2023-02-15T07:41:17.628Z,98611.72
2023-02-15T07:43:46.723Z,98613.50
2023-02-15T07:46:15.856Z,98607.25
2023-02-15T07:48:46.674Z,98603.56
2023-02-15T07:51:15.548Z,98606.25
2023-02-15T07:53:43.806Z,98600.88
2023-02-15T07:56:12.651Z,98602.66
2023-02-15T07:58:56.944Z,98605.25
2023-02-15T08:01:26.324Z,98604.41
2023-02-15T08:03:55.923Z,98597.19
2023-02-15T08:06:26.776Z,98593.59
2023-02-15T08:08:55.292Z,98594.41
2023-02-15T08:11:37.636Z,98593.53
2023-02-15T08:14:07.901Z,98591.72
2023-02-15T08:16:37.647Z,98600.69
2023-02-15T08:19:09.012Z,98593.53
2023-02-15T08:21:37.723Z,98596.22
2023-02-15T08:24:06.461Z,98591.72
2023-02-15T08:26:34.739Z,98599.78
2023-02-15T08:29:03.391Z,98593.44
2023-02-15T08:31:31.719Z,98600.59
2023-02-15T08:33:59.980Z,98596.94
2023-02-15T08:36:30.920Z,98584.41
2023-02-15T08:38:59.675Z,98591.50
2023-02-15T08:41:28.491Z,98593.25
2023-02-15T08:43:57.598Z,98594.19
2023-02-15T08:46:26.568Z,98595.06
2023-02-15T08:48:54.827Z,98589.69
2023-02-15T08:51:24.143Z,98592.31
2023-02-15T08:53:54.413Z,98597.69
2023-02-15T08:56:24.351Z,98593.25
2023-02-15T08:58:52.460Z,98587.97
2023-02-15T09:01:22.971Z,98595.00
2023-02-15T09:03:53.964Z,98594.06
2023-02-15T09:06:22.318Z,98592.25
2023-02-15T09:08:50.577Z,98600.25
2023-02-15T09:11:25.011Z,98594.81
2023-02-15T09:13:55.202Z,98593.00
2023-02-15T09:16:23.832Z,98587.56
2023-02-15T09:18:52.151Z,98595.59
2023-02-15T09:21:21.740Z,98600.06
2023-02-15T09:23:50.994Z,98603.59
2023-02-15T09:26:21.396Z,98593.63
2023-02-15T09:28:50.662Z,98594.34
2023-02-15T09:31:19.672Z,98594.28
2023-02-15T09:33:49.095Z,98588.81
2023-02-15T09:36:19.352Z,98594.16
2023-02-15T09:38:47.877Z,98586.91
2023-02-15T09:41:30.093Z,98584.16
2023-02-15T09:44:02.665Z,98585.88
2023-02-15T09:46:40.061Z,98592.13
2023-02-15T09:49:11.289Z,98589.44
2023-02-15T09:52:00.174Z,98580.50
2023-02-15T09:54:37.387Z,98581.38
2023-02-15T09:57:09.939Z,98583.19
2023-02-15T09:59:41.669Z,98584.06
2023-02-15T10:02:18.429Z,98576.91
2023-02-15T10:04:54.696Z,98575.09
2023-02-15T10:07:32.241Z,98571.44
2023-02-15T10:10:10.428Z,98566.06
2023-02-15T10:12:50.516Z,98558.91
2023-02-15T10:15:40.041Z,98560.72
2023-02-15T10:18:35.831Z,98561.59
2023-02-15T10:21:06.850Z,98560.63
2023-02-15T10:23:44.940Z,98555.25
2023-02-15T10:26:17.448Z,98554.34
2023-02-15T10:28:49.143Z,98543.59
2023-02-15T10:31:25.568Z,98544.47
2023-02-15T10:34:17.397Z,98532.84
2023-02-15T10:37:18.266Z,98532.84
2023-02-15T10:39:51.563Z,98536.41
2023-02-15T10:42:25.667Z,98524.72
2023-02-15T10:45:05.456Z,98524.72
2023-02-15T10:47:57.821Z,98519.34
2023-02-15T10:50:36.574Z,98518.44
2023-02-15T10:53:37.201Z,98505.94
2023-02-15T10:56:10.163Z,98504.03
2023-02-15T10:58:45.962Z,98500.34
2023-02-15T11:01:20.974Z,98502.03
2023-02-15T11:04:10.468Z,98492.13
2023-02-15T11:06:40.249Z,98481.34
2023-02-15T11:09:11.973Z,98480.41
2023-02-15T11:11:43.161Z,98476.78
2023-02-15T11:14:15.090Z,98474.94
2023-02-15T11:16:46.600Z,98472.25
2023-02-15T11:19:16.626Z,98468.72
2023-02-15T11:21:45.804Z,98457.03
2023-02-15T11:24:15.246Z,98456.16
2023-02-15T11:26:45.408Z,98450.78
2023-02-15T11:29:16.929Z,98449.84
2023-02-15T11:31:47.738Z,98441.78
2023-02-15T11:34:19.918Z,98441.78
2023-02-15T11:36:48.233Z,98434.59
2023-02-15T11:39:18.297Z,98433.56
2023-02-15T11:41:51.184Z,98429.94
2023-02-15T11:44:21.936Z,98418.34
2023-02-15T11:46:51.690Z,98416.53
2023-02-15T11:49:24.541Z,98409.25
2023-02-15T11:51:52.948Z,98407.38
2023-02-15T11:54:21.761Z,98406.41
2023-02-15T11:56:49.970Z,98395.66
2023-02-15T11:59:20.969Z,98398.31
2023-02-15T12:01:49.468Z,98391.97
2023-02-15T12:04:22.830Z,98388.34
2023-02-15T12:06:53.800Z,98387.47
2023-02-15T12:09:26.763Z,98375.78
2023-02-15T12:11:55.227Z,98379.25
2023-02-15T12:14:23.472Z,98379.25
2023-02-15T12:16:53.119Z,98376.53
2023-02-15T12:19:29.873Z,98370.19
2023-02-15T12:21:58.094Z,98365.69
2023-02-15T12:24:28.676Z,98371.06
2023-02-15T12:27:02.076Z,98362.03
2023-02-15T12:29:32.045Z,98361.19
2023-02-15T12:32:00.513Z,98362.03
2023-02-15T12:34:32.127Z,98353.97
2023-02-15T12:37:03.255Z,98358.50
2023-02-15T12:39:31.987Z,98355.75
2023-02-15T12:42:03.025Z,98348.56
2023-02-15T12:44:32.174Z,98353.94
2023-02-15T12:47:01.984Z,98345.88
2023-02-15T12:49:32.291Z,98340.50
2023-02-15T12:52:01.479Z,98345.81
2023-02-15T12:54:41.248Z,98339.56
2023-02-15T12:57:26.852Z,98342.16
2023-02-15T12:59:57.257Z,98336.81
2023-02-15T13:02:30.690Z,98334.13
2023-02-15T13:05:07.425Z,98329.63
2023-02-15T13:07:35.654Z,98326.94
2023-02-15T13:10:03.933Z,98322.44
2023-02-15T13:12:33.115Z,98315.25
2023-02-15T13:15:03.488Z,98318.78
2023-02-15T13:17:34.792Z,98315.16
2023-02-15T13:20:06.470Z,98313.34
2023-02-15T13:22:37.711Z,98318.66
2023-02-15T13:25:07.424Z,98310.59
2023-02-15T13:27:38.244Z,98316.84
2023-02-15T13:30:24.789Z,98313.19
2023-02-15T13:32:54.938Z,98315.00
2023-02-15T13:35:24.576Z,98318.66
2023-02-15T13:38:19.358Z,98324.03
2023-02-15T13:40:51.268Z,98315.97
2023-02-15T13:43:29.738Z,98317.78
2023-02-15T13:46:06.107Z,98315.97
2023-02-15T13:48:48.467Z,98324.03
2023-02-15T13:51:25.931Z,98316.84
2023-02-15T13:54:19.575Z,98311.47
2023-02-15T13:56:53.836Z,98315.00
2023-02-15T13:59:42.850Z,98313.19
2023-02-15T14:02:32.811Z,98307.81
2023-02-15T14:05:13.104Z,98312.31
2023-02-15T14:07:50.428Z,98307.91
2023-02-15T14:10:34.036Z,98313.34
2023-02-15T14:13:32.757Z,98310.81
2023-02-15T14:16:03.007Z,98309.09
2023-02-15T14:18:38.279Z,98311.16
2023-02-15T14:21:09.304Z,98310.50
2023-02-15T14:23:45.829Z,98316.19
2023-02-15T14:26:18.259Z,98316.13
2023-02-15T14:28:48.864Z,98315.97
2023-02-15T14:31:18.491Z,98314.06
2023-02-15T14:33:51.820Z,98309.59
2023-02-15T14:36:21.647Z,98306.03
2023-02-15T14:38:56.839Z,98310.47
2023-02-15T14:41:25.764Z,98310.59
2023-02-15T14:43:57.584Z,98317.78
2023-02-15T14:46:32.052Z,98313.38
2023-02-15T14:49:01.235Z,98309.72
2023-02-15T14:51:57.976Z,98310.59
2023-02-15T14:55:01.555Z,98315.84
2023-02-15T14:57:35.956Z,98305.78
2023-02-15T15:00:33.441Z,98305.72
2023-02-15T15:03:01.652Z,98307.38
2023-02-15T15:05:34.994Z,98305.56
2023-02-15T15:08:04.784Z,98307.34
2023-02-15T15:10:45.205Z,98308.13
2023-02-15T15:13:43.408Z,98311.59
2023-02-15T15:16:51.854Z,98308.84
2023-02-15T15:20:05.557Z,98310.59
2023-02-15T15:22:34.360Z,98309.63
2023-02-15T15:25:02.689Z,98308.69
2023-02-15T15:27:59.303Z,98302.34
2023-02-15T15:30:52.178Z,98305.91
2023-02-15T15:33:42.413Z,98296.94
2023-02-15T15:36:34.317Z,98299.66
2023-02-15T15:39:06.479Z,98291.56
2023-02-15T15:41:42.866Z,98289.81
2023-02-15T15:44:38.858Z,98289.72
2023-02-15T15:47:19.622Z,98285.13
2023-02-15T15:49:47.859Z,98277.00
2023-02-15T15:52:17.186Z,98273.38
2023-02-15T15:54:46.024Z,98288.47
2023-02-15T15:57:17.146Z,98277.63
2023-02-15T15:59:47.620Z,98284.69
2023-02-15T16:02:18.291Z,98282.78
2023-02-15T16:04:47.166Z,98282.78
2023-02-15T16:07:26.005Z,98277.50
2023-02-15T16:09:58.735Z,98282.13
2023-02-15T16:12:27.509Z,98275.81
2023-02-15T16:14:57.569Z,98282.88
2023-02-15T16:17:26.524Z,98282.00
2023-02-15T16:19:55.074Z,98281.03
2023-02-15T16:22:25.947Z,98287.19
2023-02-15T16:25:24.636Z,98283.56
2023-02-15T16:27:52.863Z,98287.19
2023-02-15T16:30:25.145Z,98282.00
2023-02-15T16:32:55.393Z,98283.81
2023-02-15T16:35:23.912Z,98289.34
2023-02-15T16:37:52.343Z,98284.03
2023-02-15T16:40:45.097Z,98294.88
2023-02-15T16:43:17.581Z,98299.34
2023-02-15T16:45:47.240Z,98293.13
2023-02-15T16:48:18.693Z,98300.25
2023-02-15T16:50:50.553Z,98294.94
2023-02-15T16:53:20.920Z,98304.03
2023-02-15T16:55:51.530Z,98311.22
2023-02-15T16:58:19.832Z,98313.09
2023-02-15T17:00:49.543Z,98306.94
2023-02-15T17:03:25.282Z,98305.22
2023-02-15T17:05:54.301Z,98312.47
2023-02-15T17:08:27.405Z,98310.69
2023-02-15T17:11:15.923Z,98315.25
2023-02-15T17:14:23.199Z,98317.06
2023-02-15T17:16:54.775Z,98322.53
2023-02-15T17:19:25.375Z,98313.59
2023-02-15T17:21:55.393Z,98319.84
2023-02-15T17:24:28.101Z,98319.84
2023-02-15T17:27:00.970Z,98331.50
2023-02-15T17:29:36.332Z,98326.19
2023-02-15T17:32:06.544Z,98325.47
2023-02-15T17:35:11.347Z,98335.34
2023-02-15T17:37:47.451Z,98332.66
2023-02-15T17:40:24.493Z,98327.38
2023-02-15T17:42:53.387Z,98327.28
2023-02-15T17:45:21.977Z,98328.16
2023-02-15T17:47:51.683Z,98323.59
2023-02-15T17:50:22.575Z,98326.19
2023-02-15T17:52:50.866Z,98326.13
2023-02-15T17:55:40.239Z,98326.13
2023-02-15T17:58:09.855Z,98326.06
2023-02-15T18:00:57.270Z,98326.06
2023-02-15T18:03:44.673Z,98329.63
2023-02-15T18:06:30.446Z,98326.94
2023-02-15T18:09:16.372Z,98326.94
2023-02-15T18:11:48.772Z,98334.06
2023-02-15T18:14:16.993Z,98341.25
2023-02-15T18:16:46.266Z,98342.13
2023-02-15T18:19:19.626Z,98342.03
2023-02-15T18:21:47.898Z,98337.47
2023-02-15T18:24:17.755Z,98341.81
2023-02-15T18:26:45.975Z,98347.19
2023-02-15T18:29:14.465Z,98337.28
2023-02-15T18:31:42.797Z,98339.03
2023-02-15T18:34:16.559Z,98345.28
2023-02-15T18:36:46.324Z,98334.69
2023-02-15T18:39:25.304Z,98341.81
2023-02-15T18:41:53.476Z,98346.16
2023-02-15T18:44:21.694Z,98337.25
2023-02-15T18:46:49.888Z,98337.94
2023-02-15T18:49:18.059Z,98336.19
2023-02-15T18:51:47.797Z,98342.44
2023-02-15T18:54:19.466Z,98340.63
2023-02-15T18:56:50.944Z,98342.53
2023-02-15T18:59:19.220Z,98338.88
2023-02-15T19:01:47.484Z,98344.34
2023-02-15T19:04:15.799Z,98346.09
2023-02-15T19:06:46.396Z,98349.63
2023-02-15T19:09:18.471Z,98346.09
2023-02-15T19:11:49.488Z,98341.66
2023-02-15T19:14:24.820Z,98340.72
2023-02-15T19:16:53.417Z,98342.53
2023-02-15T19:19:21.628Z,98336.19
2023-02-15T19:21:49.924Z,98344.25
2023-02-15T19:24:24.617Z,98338.88
2023-02-15T19:26:53.129Z,98344.34
2023-02-15T19:29:25.180Z,98337.94
2023-02-15T19:31:53.519Z,98333.50
2023-02-15T19:34:21.800Z,98336.19
2023-02-15T19:36:51.557Z,98329.00
2023-02-15T19:39:28.210Z,98329.88
2023-02-15T19:41:56.428Z,98335.25
2023-02-15T19:44:24.656Z,98332.56
2023-02-15T19:46:52.905Z,98326.31
2023-02-15T19:49:21.278Z,98324.50
2023-02-15T19:51:49.400Z,98329.00
2023-02-15T19:54:30.984Z,98329.88
2023-02-15T19:56:59.397Z,98329.00
2023-02-15T19:59:28.517Z,98332.56
2023-02-15T20:01:56.855Z,98338.88
2023-02-15T20:04:25.381Z,98336.19
2023-02-15T20:06:54.287Z,98328.13
2023-02-15T20:09:24.228Z,98319.22
2023-02-15T20:11:54.309Z,98327.19
2023-02-15T20:14:22.731Z,98324.50
2023-02-15T20:16:50.964Z,98329.88
2023-02-15T20:19:19.237Z,98327.19
2023-02-15T20:21:51.848Z,98331.59
2023-02-15T20:24:21.553Z,98317.38
2023-02-15T20:26:49.770Z,98328.13
2023-02-15T20:29:20.276Z,98324.50
2023-02-15T20:31:48.647Z,98328.06
2023-02-15T20:34:16.949Z,98322.69
2023-02-15T20:36:45.131Z,98333.38
2023-02-15T20:39:15.454Z,98328.00
2023-02-15T20:41:48.327Z,98324.41
2023-02-15T20:44:20.992Z,98326.19
2023-02-15T20:46:49.466Z,98322.63
2023-02-15T20:49:17.625Z,98318.97
2023-02-15T20:51:47.562Z,98324.34
2023-02-15T20:54:16.815Z,98319.84
2023-02-15T20:56:45.160Z,98315.34
2023-02-15T20:59:25.719Z,98309.97
2023-02-15T21:01:56.848Z,98308.22
2023-02-15T21:04:30.057Z,98306.41
2023-02-15T21:06:58.253Z,98302.78
2023-02-15T21:09:26.463Z,98303.63
2023-02-15T21:11:55.738Z,98306.31
2023-02-15T21:14:27.289Z,98300.09
2023-02-15T21:16:55.669Z,98297.47
2023-02-15T21:19:24.570Z,98297.47
2023-02-15T21:21:53.584Z,98295.66
2023-02-15T21:24:23.795Z,98285.78
2023-02-15T21:26:52.306Z,98296.63
2023-02-15T21:29:20.619Z,98280.50
2023-02-15T21:31:50.443Z,98284.13
2023-02-15T21:34:19.217Z,98275.16
2023-02-15T21:36:48.338Z,98277.88
2023-02-15T21:39:17.363Z,98277.00
2023-02-15T21:42:05.685Z,98275.25
2023-02-15T21:45:03.263Z,98282.38
2023-02-15T21:47:50.636Z,98271.69
2023-02-15T21:50:37.206Z,98272.66
2023-02-15T21:53:06.331Z,98273.59
2023-02-15T21:55:34.721Z,98268.22
2023-02-15T21:58:03.031Z,98262.94
2023-02-15T22:00:31.366Z,98262.94
2023-02-15T22:03:01.014Z,98267.44
2023-02-15T22:05:30.512Z,98269.28
2023-02-15T22:07:58.674Z,98263.94
2023-02-15T22:10:27.194Z,98263.09
2023-02-15T22:12:55.712Z,98264.91
2023-02-15T22:15:24.717Z,98258.75
2023-02-15T22:17:53.046Z,98260.47
2023-02-15T22:20:23.953Z,98256.06
2023-02-15T22:22:52.684Z,98257.00
2023-02-15T22:25:22.087Z,98255.19
2023-02-15T22:27:50.584Z,98249.03
2023-02-15T22:30:24.780Z,98249.91
2023-02-15T22:32:53.008Z,98249.03
2023-02-15T22:35:24.381Z,98242.84
2023-02-15T22:37:52.706Z,98241.03
2023-02-15T22:40:21.100Z,98241.03
2023-02-15T22:42:50.667Z,98243.72
2023-02-15T22:45:20.122Z,98245.53
2023-02-15T22:47:48.964Z,98244.63
2023-02-15T22:50:19.274Z,98247.31
2023-02-15T22:52:49.027Z,98237.53
2023-02-15T22:55:17.380Z,98242.03
2023-02-15T22:57:45.865Z,98247.41
2023-02-15T23:00:17.369Z,98249.22
2023-02-15T23:02:45.531Z,98250.19
2023-02-15T23:05:20.612Z,98250.25
2023-02-15T23:07:50.481Z,98251.09
2023-02-15T23:10:25.190Z,98245.81
2023-02-15T23:13:11.474Z,98245.81
2023-02-15T23:15:39.843Z,98247.63
2023-02-15T23:18:19.152Z,98249.47
2023-02-15T23:20:47.909Z,98247.72
2023-02-15T23:23:17.656Z,98236.97
2023-02-15T23:25:45.884Z,98228.91
2023-02-15T23:28:22.434Z,98233.41
2023-02-15T23:30:50.784Z,98231.69
2023-02-15T23:33:21.135Z,98229.94
2023-02-15T23:35:49.499Z,98236.19
2023-02-15T23:38:31.638Z,98225.44
2023-02-15T23:41:18.728Z,98231.69
2023-02-15T23:43:48.941Z,98239.75
2023-02-15T23:46:26.395Z,98232.69
2023-02-15T23:48:54.628Z,98232.78
2023-02-15T23:51:24.166Z,98235.56
2023-02-15T23:53:53.784Z,98236.50
2023-02-15T23:56:22.021Z,98233.81
2023-02-15T23:58:50.232Z,98230.25
